createdAt,value
2018-12-19T00:01:06.624Z,22.93
2018-12-19T00:03:35.884Z,20.55
2018-12-19T00:06:05.149Z,21.37
2018-12-19T00:08:34.545Z,27.35
2018-12-19T00:11:03.774Z,21.15
2018-12-19T00:13:32.947Z,15.95
2018-12-19T00:16:03.634Z,18.35
2018-12-19T00:18:33.213Z,16.52
2018-12-19T00:21:02.375Z,17.65
2018-12-19T00:23:31.619Z,29.18
2018-12-19T00:26:00.845Z,16.27
2018-12-19T00:28:30.132Z,15.78
2018-12-19T00:30:59.349Z,20.80
2018-12-19T00:33:28.731Z,22.98
2018-12-19T00:35:57.930Z,14.57
2018-12-19T00:38:27.099Z,26.80
2018-12-19T00:40:57.265Z,25.60
2018-12-19T00:43:26.463Z,22.37
2018-12-19T00:45:56.117Z,30.27
2018-12-19T00:48:25.384Z,23.23
2018-12-19T00:50:54.662Z,30.13
2018-12-19T00:53:23.912Z,17.30
2018-12-19T00:55:53.087Z,14.80
2018-12-19T00:58:22.303Z,17.43
2018-12-19T01:00:51.491Z,17.80
2018-12-19T01:03:20.701Z,21.23
2018-12-19T01:05:49.895Z,31.23
2018-12-19T01:08:19.129Z,13.63
2018-12-19T01:10:48.367Z,20.70
2018-12-19T01:13:17.602Z,35.37
2018-12-19T01:15:46.755Z,18.43
2018-12-19T01:18:16.001Z,17.07
2018-12-19T01:20:45.301Z,19.73
2018-12-19T01:23:14.502Z,15.50
2018-12-19T01:25:43.745Z,14.30
2018-12-19T01:28:12.975Z,22.53
2018-12-19T01:30:42.349Z,14.10
2018-12-19T01:33:11.535Z,14.20
2018-12-19T01:35:40.733Z,16.33
2018-12-19T01:38:09.882Z,11.33
2018-12-19T01:40:39.045Z,15.93
2018-12-19T01:43:08.833Z,19.60
2018-12-19T01:45:53.145Z,20.40
2018-12-19T01:48:22.389Z,20.03
2018-12-19T01:50:51.592Z,17.47
2018-12-19T01:53:20.858Z,16.97
2018-12-19T01:55:50.301Z,16.73
2018-12-19T01:58:19.528Z,24.20
2018-12-19T02:00:48.779Z,28.73
2018-12-19T02:03:18.007Z,25.03
2018-12-19T02:05:47.290Z,23.03
2018-12-19T02:08:16.487Z,27.40
2018-12-19T02:10:45.661Z,18.43
2018-12-19T02:13:14.929Z,16.67
2018-12-19T02:15:44.166Z,16.43
2018-12-19T02:18:13.375Z,17.17
2018-12-19T02:20:42.653Z,14.77
2018-12-19T02:23:11.852Z,17.77
2018-12-19T02:25:41.067Z,18.90
2018-12-19T02:28:10.254Z,19.63
2018-12-19T02:30:39.432Z,20.83
2018-12-19T02:33:08.687Z,14.50
2018-12-19T02:35:37.880Z,15.67
2018-12-19T02:38:07.157Z,15.43
2018-12-19T02:40:36.364Z,17.70
2018-12-19T02:43:05.583Z,21.73
2018-12-19T02:45:34.777Z,20.87
2018-12-19T02:48:03.971Z,17.03
2018-12-19T02:50:33.251Z,23.10
2018-12-19T02:53:02.522Z,18.23
2018-12-19T02:55:31.769Z,20.43
2018-12-19T02:58:00.996Z,20.23
2018-12-19T03:00:30.301Z,24.27
2018-12-19T03:02:59.561Z,27.17
2018-12-19T03:05:28.788Z,24.17
2018-12-19T03:07:58.029Z,23.93
2018-12-19T03:10:27.269Z,24.80
2018-12-19T03:12:56.886Z,31.10
2018-12-19T03:15:26.049Z,27.43
2018-12-19T03:17:55.244Z,26.13
2018-12-19T03:20:24.426Z,33.33
2018-12-19T03:22:53.739Z,32.47
2018-12-19T03:25:22.991Z,32.53
2018-12-19T03:27:52.274Z,34.57
2018-12-19T03:30:21.445Z,31.37
2018-12-19T03:32:50.663Z,21.97
2018-12-19T03:35:19.849Z,20.80
2018-12-19T03:37:49.005Z,20.40
2018-12-19T03:40:18.220Z,27.23
2018-12-19T03:42:47.785Z,20.37
2018-12-19T03:45:17.225Z,31.13
2018-12-19T03:47:46.453Z,20.97
2018-12-19T03:50:15.933Z,19.63
2018-12-19T03:52:45.148Z,24.67
2018-12-19T03:55:14.374Z,34.80
2018-12-19T03:57:43.680Z,32.07
2018-12-19T04:00:12.924Z,35.33
2018-12-19T04:02:42.121Z,34.50
2018-12-19T04:05:11.405Z,35.33
2018-12-19T04:07:40.606Z,27.90
2018-12-19T04:10:09.891Z,29.30
2018-12-19T04:12:39.102Z,21.60
2018-12-19T04:15:08.357Z,20.23
2018-12-19T04:17:37.571Z,20.00
2018-12-19T04:20:06.846Z,20.03
2018-12-19T04:22:36.013Z,16.80
2018-12-19T04:25:05.321Z,19.57
2018-12-19T04:27:34.581Z,19.43
2018-12-19T04:30:03.854Z,26.77
2018-12-19T04:32:33.173Z,18.67
2018-12-19T04:35:02.435Z,21.90
2018-12-19T04:37:31.683Z,23.53
2018-12-19T04:40:05.422Z,15.00
2018-12-19T04:42:32.497Z,18.20
2018-12-19T04:45:01.909Z,17.43
2018-12-19T04:47:33.352Z,17.30
2018-12-19T04:50:02.607Z,20.60
2018-12-19T04:52:31.774Z,26.53
2018-12-19T04:55:00.942Z,13.57
2018-12-19T04:57:30.236Z,18.20
2018-12-19T04:59:59.467Z,11.67
2018-12-19T05:02:28.673Z,15.07
2018-12-19T05:04:57.904Z,10.63
2018-12-19T05:07:27.118Z,11.20
2018-12-19T05:09:56.280Z,12.13
2018-12-19T05:12:25.497Z,10.80
2018-12-19T05:14:54.689Z,13.47
2018-12-19T05:17:23.882Z,15.20
2018-12-19T05:19:53.530Z,10.50
2018-12-19T05:22:22.755Z,12.80
2018-12-19T05:24:51.983Z,14.00
2018-12-19T05:27:21.190Z,10.87
2018-12-19T05:29:50.345Z,12.60
2018-12-19T05:32:19.524Z,15.07
2018-12-19T05:34:48.683Z,11.40
2018-12-19T05:37:17.868Z,13.03
2018-12-19T05:39:47.059Z,34.73
2018-12-19T05:42:16.275Z,13.43
2018-12-19T05:44:45.533Z,15.07
2018-12-19T05:47:15.090Z,15.90
2018-12-19T05:49:45.063Z,13.67
2018-12-19T05:52:14.277Z,13.70
2018-12-19T05:54:44.426Z,10.67
2018-12-19T05:57:13.895Z,12.60
2018-12-19T05:59:43.107Z,11.17
2018-12-19T06:02:12.313Z,10.17
2018-12-19T06:04:41.509Z,10.23
2018-12-19T06:07:11.716Z,10.40
2018-12-19T06:09:41.012Z,11.73
2018-12-19T06:12:10.223Z,13.57
2018-12-19T06:14:39.418Z,12.63
2018-12-19T06:17:08.608Z,9.70
2018-12-19T06:19:37.803Z,11.50
2018-12-19T06:22:07.020Z,12.50
2018-12-19T06:24:36.235Z,10.13
2018-12-19T06:27:05.518Z,8.57
2018-12-19T06:29:34.715Z,10.10
2018-12-19T06:32:03.974Z,10.17
2018-12-19T06:34:33.160Z,9.47
2018-12-19T06:37:02.464Z,9.43
2018-12-19T06:39:31.737Z,9.10
2018-12-19T06:42:01.088Z,9.77
2018-12-19T06:44:30.325Z,9.53
2018-12-19T06:47:00.074Z,9.30
2018-12-19T06:49:29.244Z,10.73
2018-12-19T06:51:59.868Z,9.87
2018-12-19T06:54:29.106Z,16.23
2018-12-19T06:56:58.339Z,13.47
2018-12-19T06:59:27.564Z,18.03
2018-12-19T07:01:56.825Z,17.70
2018-12-19T07:04:26.011Z,17.67
2018-12-19T07:06:55.183Z,14.60
2018-12-19T07:09:24.467Z,14.40
2018-12-19T07:11:53.671Z,18.07
2018-12-19T07:14:22.902Z,15.20
2018-12-19T07:16:52.262Z,18.03
2018-12-19T07:19:21.476Z,12.53
2018-12-19T07:21:50.736Z,15.10
2018-12-19T07:24:19.980Z,17.73
2018-12-19T07:26:49.209Z,15.40
2018-12-19T07:29:18.424Z,12.60
2018-12-19T07:31:47.579Z,14.30
2018-12-19T07:34:16.760Z,14.77
2018-12-19T07:36:45.993Z,14.03
2018-12-19T07:39:15.161Z,14.87
2018-12-19T07:41:44.401Z,12.17
2018-12-19T07:44:13.611Z,10.30
2018-12-19T07:46:42.830Z,11.33
2018-12-19T07:49:12.041Z,11.70
2018-12-19T07:51:41.214Z,12.77
2018-12-19T07:54:10.676Z,12.33
2018-12-19T07:56:39.868Z,13.43
2018-12-19T07:59:09.234Z,10.73
2018-12-19T08:01:38.484Z,9.53
2018-12-19T08:04:07.772Z,12.27
2018-12-19T08:06:36.981Z,10.27
2018-12-19T08:09:08.704Z,11.50
2018-12-19T08:11:37.866Z,14.13
2018-12-19T08:14:07.053Z,13.70
2018-12-19T08:16:36.228Z,13.73
2018-12-19T08:19:05.452Z,30.43
2018-12-19T08:21:34.710Z,18.53
2018-12-19T08:24:03.941Z,15.37
2018-12-19T08:26:33.142Z,19.03
2018-12-19T08:29:02.285Z,14.47
2018-12-19T08:31:31.813Z,14.47
2018-12-19T08:34:01.398Z,18.63
2018-12-19T08:36:30.688Z,17.10
2018-12-19T08:38:59.905Z,18.37
2018-12-19T08:41:29.126Z,13.57
2018-12-19T08:43:58.323Z,12.53
2018-12-19T08:46:27.538Z,14.30
2018-12-19T08:48:56.713Z,17.63
2018-12-19T08:51:26.042Z,11.33
2018-12-19T08:53:55.238Z,13.03
2018-12-19T08:56:25.538Z,13.03
2018-12-19T08:58:54.777Z,10.97
2018-12-19T09:01:24.020Z,11.97
2018-12-19T09:03:53.236Z,15.53
2018-12-19T09:06:22.409Z,23.03
2018-12-19T09:08:51.564Z,19.53
2018-12-19T09:11:20.847Z,19.63
2018-12-19T09:13:50.176Z,16.13
2018-12-19T09:16:19.374Z,13.73
2018-12-19T09:18:48.566Z,17.83
2018-12-19T09:21:19.719Z,17.77
2018-12-19T09:23:48.922Z,15.80
2018-12-19T09:26:18.130Z,16.00
2018-12-19T09:28:47.367Z,17.17
2018-12-19T09:31:16.614Z,20.37
2018-12-19T09:33:45.795Z,24.87
2018-12-19T09:36:15.036Z,24.10
2018-12-19T09:38:44.244Z,20.60
2018-12-19T09:41:13.466Z,19.33
2018-12-19T09:43:42.681Z,20.33
2018-12-19T09:46:11.827Z,22.00
2018-12-19T09:48:41.029Z,18.40
2018-12-19T09:51:10.237Z,20.07
2018-12-19T09:53:39.474Z,19.97
2018-12-19T09:56:08.686Z,22.33
2018-12-19T09:58:38.184Z,21.27
2018-12-19T10:01:07.397Z,22.27
2018-12-19T10:03:36.570Z,18.83
2018-12-19T10:06:05.801Z,24.17
2018-12-19T10:08:35.028Z,30.30
2018-12-19T10:11:04.246Z,24.00
2018-12-19T10:13:33.480Z,26.40
2018-12-19T10:16:04.163Z,28.10
2018-12-19T10:18:33.764Z,28.97
2018-12-19T10:21:02.940Z,31.07
2018-12-19T10:23:32.094Z,37.67
2018-12-19T10:26:06.618Z,35.57
2018-12-19T10:28:35.891Z,31.73
2018-12-19T10:31:05.206Z,36.33
2018-12-19T10:33:34.600Z,26.57
2018-12-19T10:36:03.825Z,31.00
2018-12-19T10:38:33.029Z,27.40
2018-12-19T10:41:02.205Z,33.40
2018-12-19T10:43:31.419Z,29.47
2018-12-19T10:46:00.592Z,27.83
2018-12-19T10:48:29.808Z,34.97
2018-12-19T10:50:59.045Z,36.23
2018-12-19T10:53:28.210Z,47.93
2018-12-19T10:55:57.412Z,35.20
2018-12-19T10:58:26.599Z,29.30
2018-12-19T11:01:00.721Z,35.40
2018-12-19T11:03:30.000Z,37.60
2018-12-19T11:05:59.232Z,37.40
2018-12-19T11:08:28.492Z,53.03
2018-12-19T11:10:57.717Z,40.57
2018-12-19T11:13:26.898Z,36.17
2018-12-19T11:15:56.133Z,39.90
2018-12-19T11:18:25.298Z,37.40
2018-12-19T11:20:54.663Z,39.13
2018-12-19T11:23:23.861Z,42.70
2018-12-19T11:25:53.059Z,45.00
2018-12-19T11:28:22.223Z,52.67
2018-12-19T11:30:51.444Z,62.57
2018-12-19T11:33:20.671Z,53.90
2018-12-19T11:35:49.877Z,41.50
2018-12-19T11:38:20.173Z,48.90
2018-12-19T11:40:49.339Z,54.30
2018-12-19T11:43:18.563Z,50.07
2018-12-19T11:45:47.838Z,41.93
2018-12-19T11:48:17.053Z,52.47
2018-12-19T11:50:46.241Z,47.80
2018-12-19T11:53:15.424Z,43.10
2018-12-19T11:55:44.594Z,49.50
2018-12-19T11:58:13.816Z,45.17
2018-12-19T12:00:43.057Z,51.83
2018-12-19T12:03:12.617Z,55.70
2018-12-19T12:05:41.843Z,41.37
2018-12-19T12:08:11.025Z,45.47
2018-12-19T12:10:40.192Z,50.30
2018-12-19T12:13:09.412Z,43.87
2018-12-19T12:15:38.643Z,42.23
2018-12-19T12:18:07.814Z,49.80
2018-12-19T12:20:37.028Z,49.57
2018-12-19T12:23:06.252Z,56.33
2018-12-19T12:25:35.430Z,75.67
2018-12-19T12:28:04.719Z,65.03
2018-12-19T12:30:33.967Z,60.27
2018-12-19T12:33:03.166Z,69.70
2018-12-19T12:35:32.461Z,77.03
2018-12-19T12:38:01.706Z,70.07
2018-12-19T12:40:30.949Z,72.20
2018-12-19T12:43:00.184Z,70.23
2018-12-19T12:45:29.614Z,63.43
2018-12-19T12:47:59.018Z,74.30
2018-12-19T12:50:28.254Z,80.47
2018-12-19T12:52:57.431Z,71.47
2018-12-19T12:55:26.632Z,64.53
2018-12-19T12:57:55.817Z,65.20
2018-12-19T13:00:25.001Z,76.90
2018-12-19T13:02:54.265Z,70.07
2018-12-19T13:05:24.835Z,65.07
2018-12-19T13:07:54.063Z,89.67
2018-12-19T13:10:23.257Z,80.50
2018-12-19T13:12:52.523Z,81.07
2018-12-19T13:15:27.098Z,78.00
2018-12-19T13:17:56.539Z,82.93
2018-12-19T13:20:25.751Z,71.27
2018-12-19T13:22:55.001Z,60.70
2018-12-19T13:25:24.223Z,67.43
2018-12-19T13:27:53.473Z,75.33
2018-12-19T13:30:22.720Z,76.77
2018-12-19T13:32:51.944Z,73.03
2018-12-19T13:35:21.164Z,68.70
2018-12-19T13:37:50.347Z,73.47
2018-12-19T13:40:19.556Z,84.20
2018-12-19T13:42:48.822Z,83.30
2018-12-19T13:45:18.040Z,78.27
2018-12-19T13:47:47.320Z,81.80
2018-12-19T13:50:16.586Z,86.17
2018-12-19T13:52:45.811Z,77.27
2018-12-19T13:55:15.061Z,79.00
2018-12-19T13:57:44.288Z,73.03
2018-12-19T14:00:13.525Z,63.87
2018-12-19T14:02:42.718Z,62.40
2018-12-19T14:05:11.936Z,59.83
2018-12-19T14:07:41.357Z,59.77
2018-12-19T14:10:10.673Z,62.30
2018-12-19T14:12:40.911Z,55.43
2018-12-19T14:15:10.154Z,55.90
2018-12-19T14:17:39.419Z,45.30
2018-12-19T14:20:09.199Z,47.03
2018-12-19T14:22:38.620Z,50.50
2018-12-19T14:25:07.900Z,45.53
2018-12-19T14:27:37.159Z,37.93
2018-12-19T14:30:08.245Z,39.93
2018-12-19T14:32:37.830Z,37.97
2018-12-19T14:35:07.333Z,33.50
2018-12-19T14:37:36.554Z,49.73
2018-12-19T14:40:06.011Z,42.03
2018-12-19T14:42:35.276Z,56.60
2018-12-19T14:45:05.122Z,60.80
2018-12-19T14:47:34.333Z,54.97
2018-12-19T14:50:04.428Z,51.90
2018-12-19T14:52:33.869Z,47.97
2018-12-19T14:55:04.171Z,51.57
2018-12-19T14:57:33.439Z,39.37
2018-12-19T15:00:02.687Z,34.07
2018-12-19T15:02:33.006Z,37.53
2018-12-19T15:05:02.237Z,41.02
2018-12-19T15:07:31.464Z,30.12
2018-12-19T15:10:01.930Z,26.68
2018-12-19T15:12:31.254Z,23.40
2018-12-19T15:15:03.945Z,22.58
2018-12-19T15:17:33.376Z,21.30
2018-12-19T15:20:13.181Z,22.90
2018-12-19T15:22:42.505Z,14.20
2018-12-19T15:25:11.753Z,14.20
2018-12-19T15:27:40.992Z,16.40
2018-12-19T15:30:10.304Z,14.40
2018-12-19T15:32:40.394Z,12.15
2018-12-19T15:35:09.867Z,16.97
2018-12-19T15:37:39.065Z,13.13
2018-12-19T15:40:08.432Z,13.00
2018-12-19T15:42:37.613Z,10.50
2018-12-19T15:45:06.957Z,11.73
2018-12-19T15:47:36.239Z,7.92
2018-12-19T15:50:07.243Z,10.68
2018-12-19T15:52:36.653Z,14.05
2018-12-19T15:55:06.878Z,7.40
2018-12-19T15:57:36.395Z,10.98
2018-12-19T16:00:10.164Z,15.25
2018-12-19T16:02:39.484Z,17.70
2018-12-19T16:05:08.825Z,17.98
2018-12-19T16:07:40.897Z,14.05
2018-12-19T16:10:13.313Z,10.98
2018-12-19T16:12:43.483Z,10.48
2018-12-19T16:15:12.974Z,11.78
2018-12-19T16:17:42.278Z,7.97
2018-12-19T16:20:11.481Z,10.40
2018-12-19T16:22:40.793Z,26.85
2018-12-19T16:25:09.972Z,18.52
2018-12-19T16:27:39.187Z,19.92
2018-12-19T16:30:09.606Z,32.03
2018-12-19T16:32:42.809Z,8.95
2018-12-19T16:35:12.146Z,16.87
2018-12-19T16:37:41.353Z,11.60
2018-12-19T16:40:10.696Z,8.25
2018-12-19T16:42:45.882Z,11.15
2018-12-19T16:45:11.778Z,5.90
2018-12-19T16:47:41.120Z,7.25
2018-12-19T16:50:10.459Z,6.42
2018-12-19T16:52:39.769Z,8.00
2018-12-19T16:55:09.444Z,8.00
2018-12-19T16:57:38.677Z,12.15
2018-12-19T17:00:09.726Z,10.80
2018-12-19T17:02:38.988Z,9.43
2018-12-19T17:05:08.252Z,11.00
2018-12-19T17:07:37.551Z,5.55
2018-12-19T17:10:07.076Z,8.60
2018-12-19T17:12:38.363Z,16.73
2018-12-19T17:15:08.602Z,8.00
2018-12-19T17:17:43.985Z,11.88
2018-12-19T17:20:13.479Z,12.95
2018-12-19T17:22:44.783Z,16.32
2018-12-19T17:25:14.122Z,22.73
2018-12-19T17:27:43.539Z,20.05
2018-12-19T17:30:12.876Z,13.75
2018-12-19T17:32:42.295Z,19.73
2018-12-19T17:35:12.734Z,15.25
2018-12-19T17:37:42.076Z,9.40
2018-12-19T17:40:11.696Z,13.25
2018-12-19T17:42:40.993Z,13.98
2018-12-19T17:45:10.307Z,14.87
2018-12-19T17:47:39.650Z,9.90
2018-12-19T17:50:09.054Z,13.50
2018-12-19T17:52:38.356Z,15.70
2018-12-19T17:55:08.339Z,16.32
2018-12-19T17:57:37.667Z,11.88
2018-12-19T18:00:07.154Z,17.32
2018-12-19T18:02:37.921Z,15.83
2018-12-19T18:05:07.629Z,12.68
2018-12-19T18:07:37.531Z,16.52
2018-12-19T18:10:07.302Z,18.07
2018-12-19T18:12:36.657Z,29.42
2018-12-19T18:15:06.560Z,16.25
2018-12-19T18:17:36.066Z,21.90
2018-12-19T18:20:07.053Z,14.15
2018-12-19T18:22:36.560Z,12.75
2018-12-19T18:25:06.072Z,12.07
2018-12-19T18:27:35.493Z,14.07
2018-12-19T18:30:05.134Z,12.82
2018-12-19T18:32:34.448Z,9.05
2018-12-19T18:35:03.838Z,9.25
2018-12-19T18:37:34.741Z,12.23
2018-12-19T18:40:05.520Z,8.45
2018-12-19T18:42:35.076Z,11.18
2018-12-19T18:45:11.708Z,9.55
2018-12-19T18:47:36.974Z,8.40
2018-12-19T18:50:08.868Z,8.08
2018-12-19T18:52:38.482Z,8.23
2018-12-19T18:55:08.223Z,10.43
2018-12-19T18:57:37.600Z,12.65
2018-12-19T19:00:09.182Z,14.58
2018-12-19T19:02:38.551Z,10.20
2018-12-19T19:05:08.132Z,21.87
2018-12-19T19:07:37.609Z,21.75
2018-12-19T19:10:08.301Z,16.95
2018-12-19T19:12:37.608Z,22.25
2018-12-19T19:15:10.575Z,15.65
2018-12-19T19:17:40.301Z,19.45
2018-12-19T19:20:10.842Z,21.57
2018-12-19T19:22:40.194Z,38.25
2018-12-19T19:25:13.079Z,18.32
2018-12-19T19:27:44.163Z,8.60
2018-12-19T19:30:14.736Z,13.60
2018-12-19T19:32:44.002Z,26.50
2018-12-19T19:35:13.230Z,7.28
2018-12-19T19:37:44.451Z,12.15
2018-12-19T19:40:13.888Z,13.75
2018-12-19T19:42:43.216Z,11.03
2018-12-19T19:45:12.529Z,11.35
2018-12-19T19:47:42.083Z,12.60
2018-12-19T19:50:13.150Z,15.20
2018-12-19T19:52:44.269Z,19.62
2018-12-19T19:55:14.979Z,17.07
2018-12-19T19:57:44.333Z,8.25
2018-12-19T20:00:13.677Z,9.63
2018-12-19T20:02:43.137Z,7.42
2018-12-19T20:05:13.363Z,12.75
2018-12-19T20:07:42.936Z,14.70
2018-12-19T20:10:12.617Z,8.75
2018-12-19T20:12:41.913Z,9.65
2018-12-19T20:15:11.246Z,6.12
2018-12-19T20:24:25.495Z,17.62
2018-12-19T20:26:54.798Z,19.15
2018-12-19T20:29:24.178Z,11.38
2018-12-19T20:31:53.463Z,9.88
2018-12-19T20:34:22.733Z,12.18
2018-12-19T20:36:52.029Z,8.45
2018-12-19T20:39:21.345Z,10.58
2018-12-19T20:41:50.648Z,12.23
2018-12-19T20:44:21.334Z,20.75
2018-12-19T20:46:50.698Z,10.18
2018-12-19T20:49:20.945Z,9.28
2018-12-19T20:51:50.236Z,17.27
2018-12-19T20:54:19.494Z,10.72
2018-12-19T20:56:48.772Z,18.85
2018-12-19T20:59:18.121Z,18.75
2018-12-19T21:01:47.481Z,13.45
2018-12-19T21:04:16.871Z,15.93
2018-12-19T21:06:46.122Z,18.73
2018-12-19T21:09:15.631Z,17.77
2018-12-19T21:11:45.397Z,16.52
2018-12-19T21:14:14.829Z,13.90
2018-12-19T21:16:49.334Z,15.55
2018-12-19T21:19:18.745Z,18.37
2018-12-19T21:21:50.019Z,16.85
2018-12-19T21:24:19.478Z,19.42
2018-12-19T21:26:48.805Z,16.02
2018-12-19T21:29:18.068Z,28.02
2018-12-19T21:31:47.383Z,17.23
2018-12-19T21:34:16.916Z,18.10
2018-12-19T21:36:46.210Z,19.23
2018-12-19T21:39:15.425Z,21.23
2018-12-19T21:41:44.716Z,26.15
2018-12-19T21:44:13.992Z,15.75
2018-12-19T21:46:43.222Z,18.05
2018-12-19T21:49:14.063Z,16.75
2018-12-19T21:51:43.327Z,21.07
2018-12-19T21:54:12.621Z,18.35
2018-12-19T21:56:41.897Z,16.30
2018-12-19T21:59:11.425Z,15.08
2018-12-19T22:01:44.464Z,20.20
2018-12-19T22:04:13.922Z,23.00
2018-12-19T22:06:43.780Z,17.35
2018-12-19T22:09:14.746Z,25.55
2018-12-19T22:11:43.999Z,17.92
2018-12-19T22:14:13.256Z,24.87
2018-12-19T22:16:47.926Z,28.65
2018-12-19T22:19:17.463Z,20.85
2018-12-19T22:21:46.736Z,23.05
2018-12-19T22:24:16.036Z,30.62
2018-12-19T22:26:45.235Z,31.50
2018-12-19T22:29:14.584Z,32.90
2018-12-19T22:31:43.802Z,32.05
2018-12-19T22:34:13.120Z,43.33
2018-12-19T22:36:42.342Z,30.62
2018-12-19T22:39:13.833Z,35.27
2018-12-19T22:41:43.015Z,29.97
2018-12-19T22:44:12.199Z,32.50
2018-12-19T22:46:41.460Z,30.60
2018-12-19T22:49:10.780Z,33.33
2018-12-19T22:51:40.067Z,30.27
2018-12-19T22:54:09.404Z,28.63
2018-12-19T22:56:38.620Z,24.47
2018-12-19T22:59:07.835Z,29.00
2018-12-19T23:01:42.595Z,28.63
2018-12-19T23:04:11.960Z,26.37
2018-12-19T23:06:41.146Z,25.93
2018-12-19T23:09:10.408Z,23.10
2018-12-19T23:11:39.744Z,28.33
2018-12-19T23:14:15.342Z,28.17
2018-12-19T23:16:41.923Z,29.93
2018-12-19T23:19:11.298Z,31.60
2018-12-19T23:21:40.607Z,28.17
2018-12-19T23:24:09.924Z,26.57
2018-12-19T23:26:39.178Z,24.30
2018-12-19T23:29:10.265Z,24.77
2018-12-19T23:31:39.575Z,24.27
2018-12-19T23:34:08.817Z,28.90
2018-12-19T23:36:38.132Z,22.83
2018-12-19T23:39:07.897Z,23.80
2018-12-19T23:41:37.185Z,29.17
2018-12-19T23:44:06.377Z,22.90
2018-12-19T23:46:35.734Z,22.37
2018-12-19T23:49:05.165Z,24.97
2018-12-19T23:51:34.778Z,26.83
2018-12-19T23:54:04.097Z,23.80
2018-12-19T23:56:33.352Z,24.93
2018-12-19T23:59:02.708Z,22.33
